Time;durP1;ratioP1;P1;durP2;ratioP2;P2;SDS_P1;SDS_P2;PMS_P1;PMS_P2;Temp;Humidity;BMP_temperature;BMP_pressure;BME280_temperature;BME280_humidity;BME280_pressure;Samples;Min_cycle;Max_cycle;Signal;HPM_P1;HPM_P2
2022/05/03 00:00:10;;;;;;;0.10;0.10;;;;;;;;;;4179648;28;20106;-40
2022/05/03 00:02:39;;;;;;;0.40;0.20;;;;;;;;;;4179340;28;20432;-41
2022/05/03 00:04:49;;;;;;;0.38;0.28;;;;;;;;;;4179450;28;20059;-42
2022/05/03 00:07:04;;;;;;;0.25;0.10;;;;;;;;;;4179533;28;20118;-39
2022/05/03 00:09:07;;;;;;;0.22;0.22;;;;;;;;;;4178025;28;20116;-40
2022/05/03 00:11:29;;;;;;;0.10;0.10;;;;;;;;;;4179487;28;20106;-41
2022/05/03 00:14:02;;;;;;;0.43;0.20;;;;;;;;;;4178084;28;20160;-40
2022/05/03 00:16:04;;;;;;;0.20;0.10;;;;;;;;;;4171024;28;20095;-40
2022/05/03 00:18:06;;;;;;;1.50;0.35;;;;;;;;;;4177803;28;20129;-41
2022/05/03 00:20:08;;;;;;;0.30;0.13;;;;;;;;;;4179167;28;20123;-42
2022/05/03 00:22:12;;;;;;;0.25;0.10;;;;;;;;;;4179486;28;20124;-41
2022/05/03 00:24:13;;;;;;;0.22;0.20;;;;;;;;;;4179121;28;20104;-41
2022/05/03 00:26:14;;;;;;;0.40;0.20;;;;;;;;;;4161435;28;20061;-41
2022/05/03 00:28:16;;;;;;;0.10;0.10;;;;;;;;;;4179246;28;20071;-38
2022/05/03 00:30:17;;;;;;;0.10;0.10;;;;;;;;;;4177793;28;20076;-41
2022/05/03 00:32:22;;;;;;;0.17;0.10;;;;;;;;;;4179331;28;20103;-40
2022/05/03 00:34:23;;;;;;;0.10;0.10;;;;;;;;;;4178824;28;20459;-40
2022/05/03 00:36:25;;;;;;;0.25;0.10;;;;;;;;;;4177804;28;20115;-42
2022/05/03 00:38:27;;;;;;;0.10;0.10;;;;;;;;;;4179142;28;20052;-39
2022/05/03 00:40:32;;;;;;;0.65;0.30;;;;;;;;;;4178990;28;20057;-39
2022/05/03 00:43:18;;;;;;;0.43;0.10;;;;;;;;;;4178866;28;20489;-40
2022/05/03 00:45:43;;;;;;;0.10;0.10;;;;;;;;;;4177560;28;20424;-42
2022/05/03 00:47:51;;;;;;;0.17;0.10;;;;;;;;;;4178734;28;20061;-40
2022/05/03 00:50:03;;;;;;;0.38;0.15;;;;;;;;;;4178861;28;20110;-42
2022/05/03 00:52:16;;;;;;;0.10;0.10;;;;;;;;;;4179074;28;20416;-41
2022/05/03 00:54:37;;;;;;;0.10;0.10;;;;;;;;;;4177585;28;20063;-40
2022/05/03 00:57:01;;;;;;;0.20;0.10;;;;;;;;;;4179010;28;20452;-39
2022/05/03 00:59:13;;;;;;;0.45;0.10;;;;;;;;;;4177745;28;20201;-42
2022/05/03 01:01:54;;;;;;;0.43;0.20;;;;;;;;;;4179022;28;20110;-40
2022/05/03 01:04:00;;;;;;;0.20;0.20;;;;;;;;;;4177824;28;20069;-40
2022/05/03 01:06:26;;;;;;;0.20;0.20;;;;;;;;;;4178973;28;20053;-39
2022/05/03 01:08:36;;;;;;;0.45;0.20;;;;;;;;;;4178770;28;20451;-40
2022/05/03 01:11:04;;;;;;;0.10;0.05;;;;;;;;;;4179065;28;20542;-41
2022/05/03 01:13:11;;;;;;;0.20;0.10;;;;;;;;;;4178940;28;20067;-41
2022/05/03 01:15:23;;;;;;;0.25;0.15;;;;;;;;;;4178810;28;20071;-40
2022/05/03 01:17:48;;;;;;;0.30;0.20;;;;;;;;;;4178612;28;20515;-38
2022/05/03 01:20:06;;;;;;;0.30;0.20;;;;;;;;;;4177409;28;20142;-39
2022/05/03 01:22:28;;;;;;;0.10;0.10;;;;;;;;;;4178786;28;20049;-38
2022/05/03 01:24:38;;;;;;;0.13;0.13;;;;;;;;;;4177280;28;20098;-41
2022/05/03 01:26:42;;;;;;;0.30;0.10;;;;;;;;;;4178985;28;20053;-42
2022/05/03 01:29:00;;;;;;;0.10;0.10;;;;;;;;;;4178607;28;20049;-41
2022/05/03 01:31:10;;;;;;;0.40;0.20;;;;;;;;;;4177211;28;20559;-41
2022/05/03 01:33:17;;;;;;;0.22;0.10;;;;;;;;;;4178279;28;20234;-41
2022/05/03 01:35:21;;;;;;;0.65;0.10;;;;;;;;;;4178618;28;20120;-40
2022/05/03 01:37:59;;;;;;;0.22;0.10;;;;;;;;;;4178862;28;20110;-42
2022/05/03 01:40:24;;;;;;;0.20;0.10;;;;;;;;;;4178652;28;20144;-40
2022/05/03 01:42:49;;;;;;;0.05;0.05;;;;;;;;;;4175447;28;20053;-42
2022/05/03 01:45:02;;;;;;;0.10;0.10;;;;;;;;;;4178576;28;20099;-41
2022/05/03 01:47:22;;;;;;;0.22;0.10;;;;;;;;;;4177123;28;20115;-40
2022/05/03 01:52:16;;;;;;;0.10;0.10;;;;;;;;;;4179835;28;20111;-41
2022/05/03 01:54:23;;;;;;;0.10;0.10;;;;;;;;;;4180114;28;20053;-41
2022/05/03 01:56:47;;;;;;;0.17;0.10;;;;;;;;;;4180166;28;20512;-39
2022/05/03 01:59:27;;;;;;;0.43;0.10;;;;;;;;;;4180019;28;20431;-41
2022/05/03 02:01:40;;;;;;;0.32;0.10;;;;;;;;;;4181257;28;20543;-39
2022/05/03 02:03:48;;;;;;;0.25;0.17;;;;;;;;;;4180751;28;20061;-39
2022/05/03 02:06:00;;;;;;;0.35;0.10;;;;;;;;;;4181368;28;20508;-38
2022/05/03 02:08:01;;;;;;;0.10;0.10;;;;;;;;;;4181156;28;20404;-42
2022/05/03 02:10:06;;;;;;;0.13;0.13;;;;;;;;;;4181222;28;20060;-39
2022/05/03 02:12:14;;;;;;;0.17;0.10;;;;;;;;;;4181310;28;20052;-40
2022/05/03 02:14:46;;;;;;;0.08;0.08;;;;;;;;;;4181151;28;20063;-40
2022/05/03 02:17:00;;;;;;;0.30;0.20;;;;;;;;;;4180006;28;20049;-40
2022/05/03 02:19:08;;;;;;;0.20;0.10;;;;;;;;;;4180684;28;20064;-41
2022/05/03 02:21:18;;;;;;;0.10;0.10;;;;;;;;;;4179837;28;20398;-41
2022/05/03 02:23:46;;;;;;;0.17;0.17;;;;;;;;;;4179616;28;20049;-41
2022/05/03 02:26:05;;;;;;;0.10;0.10;;;;;;;;;;4163355;28;20053;-40
2022/05/03 02:28:17;;;;;;;0.10;0.10;;;;;;;;;;4164511;28;20513;-41
2022/05/03 02:30:19;;;;;;;0.20;0.10;;;;;;;;;;4163165;28;20050;-41
2022/05/03 02:32:55;;;;;;;0.13;0.10;;;;;;;;;;4164484;28;20083;-40
2022/05/03 02:35:05;;;;;;;0.10;0.10;;;;;;;;;;4144798;28;20068;-38
2022/05/03 02:37:18;;;;;;;0.20;0.20;;;;;;;;;;4164443;28;20111;-40
2022/05/03 02:39:21;;;;;;;0.10;0.10;;;;;;;;;;4164301;28;20096;-39
2022/05/03 02:41:22;;;;;;;0.25;0.10;;;;;;;;;;4164260;28;20493;-40
2022/05/03 02:43:25;;;;;;;0.10;0.10;;;;;;;;;;4164195;28;20448;-40
2022/05/03 02:45:27;;;;;;;0.10;0.10;;;;;;;;;;4179409;28;20131;-40
2022/05/03 02:47:43;;;;;;;0.20;0.10;;;;;;;;;;4162837;28;20590;-40
2022/05/03 02:49:53;;;;;;;0.35;0.10;;;;;;;;;;4164242;28;20057;-40
2022/05/03 02:51:58;;;;;;;0.10;0.00;;;;;;;;;;4164268;28;20057;-41
2022/05/03 02:54:02;;;;;;;0.10;0.10;;;;;;;;;;4164447;28;20058;-39
2022/05/03 02:56:26;;;;;;;0.10;0.10;;;;;;;;;;4146432;28;20049;-41
2022/05/03 02:58:53;;;;;;;0.15;0.10;;;;;;;;;;4164107;28;20137;-42
2022/05/03 03:01:49;;;;;;;0.00;0.00;;;;;;;;;;4163022;28;20109;-39
2022/05/03 03:04:03;;;;;;;0.08;0.08;;;;;;;;;;4175634;28;20053;-41
2022/05/03 03:06:05;;;;;;;0.43;0.10;;;;;;;;;;4164281;28;20546;-41
2022/05/03 03:08:07;;;;;;;0.25;0.10;;;;;;;;;;4163675;28;20111;-41
2022/05/03 03:10:12;;;;;;;0.10;0.10;;;;;;;;;;4163902;28;20111;-40
2022/05/03 03:12:35;;;;;;;0.10;0.10;;;;;;;;;;4163835;28;20049;-42
2022/05/03 03:14:47;;;;;;;0.10;0.10;;;;;;;;;;4163827;28;20072;-39
2022/05/03 03:16:54;;;;;;;0.60;0.30;;;;;;;;;;4163795;28;20137;-40
2022/05/03 03:18:57;;;;;;;0.10;0.10;;;;;;;;;;4163505;28;20107;-41
2022/05/03 03:20:59;;;;;;;0.10;0.10;;;;;;;;;;4163773;28;20053;-38
2022/05/03 03:23:02;;;;;;;0.20;0.10;;;;;;;;;;4162030;28;20049;-41
2022/05/03 03:25:04;;;;;;;0.10;0.10;;;;;;;;;;4163611;28;20054;-41
2022/05/03 03:27:09;;;;;;;0.10;0.10;;;;;;;;;;4163514;28;20382;-41
2022/05/03 03:29:10;;;;;;;0.20;0.20;;;;;;;;;;4163367;28;20512;-41
2022/05/03 03:31:11;;;;;;;0.00;0.00;;;;;;;;;;4169313;28;20044;-41
2022/05/03 03:33:13;;;;;;;0.10;0.10;;;;;;;;;;4179386;28;20106;-42
2022/05/03 03:35:15;;;;;;;0.20;0.05;;;;;;;;;;4180217;28;20056;-41
2022/05/03 03:37:18;;;;;;;0.10;0.10;;;;;;;;;;4179759;28;20068;-39
2022/05/03 03:39:20;;;;;;;0.10;0.10;;;;;;;;;;4178330;28;20053;-40
2022/05/03 03:41:21;;;;;;;0.00;0.00;;;;;;;;;;4179905;28;20097;-42
2022/05/03 03:43:22;;;;;;;0.20;0.17;;;;;;;;;;4179636;28;20099;-41
2022/05/03 03:45:24;;;;;;;0.03;0.00;;;;;;;;;;4179820;28;20122;-41
2022/05/03 03:47:25;;;;;;;0.03;0.00;;;;;;;;;;4178303;28;20061;-41
2022/05/03 03:49:28;;;;;;;0.10;0.10;;;;;;;;;;4179391;28;20053;-41
2022/05/03 03:51:40;;;;;;;0.20;0.10;;;;;;;;;;4179787;28;20122;-41
2022/05/03 03:53:41;;;;;;;0.10;0.10;;;;;;;;;;4178221;28;20052;-42
2022/05/03 03:55:44;;;;;;;0.00;0.00;;;;;;;;;;4178292;28;20412;-41
2022/05/03 03:57:45;;;;;;;0.10;0.10;;;;;;;;;;4178315;28;20083;-37
2022/05/03 03:59:47;;;;;;;0.10;0.10;;;;;;;;;;4179521;28;20056;-39
2022/05/03 04:01:49;;;;;;;0.15;0.10;;;;;;;;;;4179374;28;20098;-42
2022/05/03 04:03:51;;;;;;;0.38;0.30;;;;;;;;;;4178908;28;20260;-40
2022/05/03 04:05:52;;;;;;;0.20;0.10;;;;;;;;;;4178027;28;20750;-42
2022/05/03 04:07:53;;;;;;;0.00;0.00;;;;;;;;;;4179494;28;20114;-41
2022/05/03 04:09:54;;;;;;;0.15;0.08;;;;;;;;;;4179722;28;20053;-41
2022/05/03 04:11:55;;;;;;;0.65;0.10;;;;;;;;;;4179439;28;20048;-40
2022/05/03 04:13:56;;;;;;;0.40;0.20;;;;;;;;;;4179168;28;20068;-39
2022/05/03 04:15:58;;;;;;;0.10;0.10;;;;;;;;;;4179383;28;20057;-41
2022/05/03 04:17:59;;;;;;;0.00;0.00;;;;;;;;;;4178678;28;20106;-41
2022/05/03 04:20:01;;;;;;;0.10;0.10;;;;;;;;;;4179481;28;20053;-41
2022/05/03 04:22:12;;;;;;;0.08;0.00;;;;;;;;;;4179156;28;20115;-40
2022/05/03 04:24:13;;;;;;;0.32;0.10;;;;;;;;;;4179330;28;20390;-38
2022/05/03 04:26:14;;;;;;;0.10;0.10;;;;;;;;;;4179066;28;20100;-41
2022/05/03 04:28:16;;;;;;;0.00;0.00;;;;;;;;;;4175273;28;20087;-42
2022/05/03 04:30:17;;;;;;;0.10;0.10;;;;;;;;;;4179248;28;20056;-41
2022/05/03 04:32:18;;;;;;;0.10;0.10;;;;;;;;;;4179241;28;20049;-41
2022/05/03 04:34:19;;;;;;;0.08;0.00;;;;;;;;;;4178586;28;20048;-42
2022/05/03 04:36:21;;;;;;;0.10;0.10;;;;;;;;;;4179312;28;20055;-42
2022/05/03 04:38:22;;;;;;;0.10;0.10;;;;;;;;;;4178955;28;20102;-42
2022/05/03 04:40:23;;;;;;;0.50;0.10;;;;;;;;;;4178837;28;20095;-42
2022/05/03 04:42:25;;;;;;;0.28;0.10;;;;;;;;;;4179209;28;20325;-43
2022/05/03 04:44:27;;;;;;;0.00;0.00;;;;;;;;;;4177475;28;20416;-41
2022/05/03 04:46:28;;;;;;;0.10;0.10;;;;;;;;;;4179266;28;20053;-40
2022/05/03 04:48:29;;;;;;;0.10;0.10;;;;;;;;;;4178455;28;20108;-41
2022/05/03 04:50:30;;;;;;;0.08;0.05;;;;;;;;;;4179192;28;20418;-41
2022/05/03 04:52:32;;;;;;;0.10;0.10;;;;;;;;;;4178770;28;20079;-38
2022/05/03 04:54:35;;;;;;;0.00;0.00;;;;;;;;;;4178792;28;20144;-40
2022/05/03 04:56:36;;;;;;;0.20;0.10;;;;;;;;;;4178896;28;20053;-40
2022/05/03 04:58:37;;;;;;;0.20;0.20;;;;;;;;;;4178765;28;20144;-41
2022/05/03 05:00:39;;;;;;;0.10;0.10;;;;;;;;;;4176295;28;20053;-40
2022/05/03 05:02:40;;;;;;;0.20;0.10;;;;;;;;;;4174948;28;20057;-42
2022/05/03 05:04:41;;;;;;;0.32;0.03;;;;;;;;;;4175724;28;20095;-42
2022/05/03 05:06:42;;;;;;;0.20;0.10;;;;;;;;;;4176941;28;20106;-41
2022/05/03 05:08:43;;;;;;;0.10;0.10;;;;;;;;;;4177065;28;20049;-42
2022/05/03 05:10:44;;;;;;;0.50;0.15;;;;;;;;;;4177178;28;20053;-41
2022/05/03 05:12:45;;;;;;;0.68;0.10;;;;;;;;;;4176496;28;20417;-42
2022/05/03 05:14:47;;;;;;;0.20;0.10;;;;;;;;;;4175783;28;20080;-41
2022/05/03 05:16:49;;;;;;;0.45;0.13;;;;;;;;;;4176926;28;20392;-41
2022/05/03 05:18:54;;;;;;;0.15;0.10;;;;;;;;;;4176723;28;20057;-41
2022/05/03 05:20:55;;;;;;;0.20;0.10;;;;;;;;;;4177510;28;20056;-42
2022/05/03 05:22:56;;;;;;;0.82;0.30;;;;;;;;;;4176702;28;20780;-40
2022/05/03 05:24:57;;;;;;;0.20;0.20;;;;;;;;;;4176687;28;20119;-40
2022/05/03 05:26:58;;;;;;;0.22;0.10;;;;;;;;;;4178660;28;20174;-42
2022/05/03 05:29:01;;;;;;;0.17;0.10;;;;;;;;;;4178486;28;20057;-41
2022/05/03 05:31:02;;;;;;;0.75;0.30;;;;;;;;;;4180022;28;20391;-39
2022/05/03 05:33:03;;;;;;;0.75;0.10;;;;;;;;;;4174486;28;20103;-39
2022/05/03 05:35:05;;;;;;;0.13;0.13;;;;;;;;;;4168966;28;20086;-42
2022/05/03 05:37:06;;;;;;;0.50;0.20;;;;;;;;;;4169245;28;20095;-40
2022/05/03 05:39:07;;;;;;;0.90;0.40;;;;;;;;;;4169982;28;20122;-42
2022/05/03 05:41:13;;;;;;;0.95;0.30;;;;;;;;;;4165624;28;20085;-41
2022/05/03 05:43:15;;;;;;;0.20;0.10;;;;;;;;;;4174392;28;20056;-41
2022/05/03 05:45:17;;;;;;;0.47;0.30;;;;;;;;;;4181709;28;20068;-40
2022/05/03 05:47:18;;;;;;;0.68;0.30;;;;;;;;;;4177941;28;20487;-40
2022/05/03 05:49:19;;;;;;;0.52;0.30;;;;;;;;;;4175799;28;20064;-40
2022/05/03 05:51:20;;;;;;;0.25;0.20;;;;;;;;;;4176908;28;20385;-39
2022/05/03 05:53:33;;;;;;;0.30;0.10;;;;;;;;;;4185183;28;20076;-41
2022/05/03 05:55:36;;;;;;;1.00;0.20;;;;;;;;;;4181789;28;20049;-40
2022/05/03 05:57:37;;;;;;;0.38;0.20;;;;;;;;;;4181915;28;20088;-39
2022/05/03 05:59:38;;;;;;;0.28;0.20;;;;;;;;;;4179794;28;20069;-41
2022/05/03 06:01:41;;;;;;;0.30;0.20;;;;;;;;;;4173794;28;20056;-42
2022/05/03 06:03:43;;;;;;;0.73;0.30;;;;;;;;;;4178945;28;20052;-40
2022/05/03 06:05:44;;;;;;;0.52;0.32;;;;;;;;;;4179712;28;20096;-41
2022/05/03 06:07:45;;;;;;;0.50;0.40;;;;;;;;;;4176074;28;20057;-40
2022/05/03 06:09:46;;;;;;;0.40;0.20;;;;;;;;;;4185157;28;20500;-40
2022/05/03 06:11:48;;;;;;;0.35;0.20;;;;;;;;;;4177672;28;20044;-41
2022/05/03 06:13:49;;;;;;;0.30;0.15;;;;;;;;;;4182750;28;20056;-42
2022/05/03 06:15:51;;;;;;;0.55;0.20;;;;;;;;;;4177815;28;20098;-43
2022/05/03 06:17:53;;;;;;;1.00;0.30;;;;;;;;;;4183214;28;20060;-42
2022/05/03 06:19:54;;;;;;;0.50;0.20;;;;;;;;;;4184508;28;20555;-38
2022/05/03 06:21:55;;;;;;;0.40;0.25;;;;;;;;;;4181044;28;20053;-39
2022/05/03 06:23:56;;;;;;;0.20;0.13;;;;;;;;;;4176299;28;20053;-39
2022/05/03 06:25:58;;;;;;;0.20;0.17;;;;;;;;;;4179422;28;20057;-42
2022/05/03 06:27:59;;;;;;;0.30;0.30;;;;;;;;;;4179495;28;20052;-41
2022/05/03 06:30:00;;;;;;;0.50;0.20;;;;;;;;;;4177435;28;20091;-42
2022/05/03 06:32:02;;;;;;;0.32;0.30;;;;;;;;;;4176047;28;20102;-39
2022/05/03 06:34:04;;;;;;;0.63;0.25;;;;;;;;;;4179752;28;20500;-42
2022/05/03 06:36:05;;;;;;;0.65;0.30;;;;;;;;;;4181123;28;20053;-40
2022/05/03 06:38:06;;;;;;;0.95;0.40;;;;;;;;;;4170593;28;20053;-41
2022/05/03 06:40:09;;;;;;;1.33;1.05;;;;;;;;;;4179129;28;20458;-41
2022/05/03 06:42:11;;;;;;;0.63;0.20;;;;;;;;;;4180984;28;20060;-41
2022/05/03 06:44:13;;;;;;;0.40;0.20;;;;;;;;;;4173033;28;20060;-40
2022/05/03 06:46:16;;;;;;;0.80;0.20;;;;;;;;;;4176094;28;20053;-41
2022/05/03 06:48:17;;;;;;;0.45;0.30;;;;;;;;;;4177631;28;20137;-41
2022/05/03 06:50:18;;;;;;;0.75;0.30;;;;;;;;;;4172393;28;20128;-40
2022/05/03 06:52:20;;;;;;;0.77;0.20;;;;;;;;;;4180214;28;20049;-40
2022/05/03 06:54:21;;;;;;;0.88;0.32;;;;;;;;;;4173049;28;20053;-40
2022/05/03 06:56:22;;;;;;;1.00;0.40;;;;;;;;;;4173297;28;20114;-40
2022/05/03 06:58:23;;;;;;;1.02;0.20;;;;;;;;;;4160480;28;20706;-42
2022/05/03 07:00:24;;;;;;;0.43;0.20;;;;;;;;;;4157247;28;20079;-41
2022/05/03 07:02:29;;;;;;;0.40;0.22;;;;;;;;;;4172837;28;20075;-39
2022/05/03 07:04:30;;;;;;;0.20;0.20;;;;;;;;;;4162828;28;20139;-41
2022/05/03 07:06:31;;;;;;;2.40;0.45;;;;;;;;;;4165196;28;20159;-42
2022/05/03 07:08:33;;;;;;;0.30;0.20;;;;;;;;;;4169600;28;20061;-40
2022/05/03 07:10:35;;;;;;;0.43;0.20;;;;;;;;;;4163482;28;20562;-39
2022/05/03 07:12:36;;;;;;;0.30;0.30;;;;;;;;;;4163303;28;20125;-39
2022/05/03 07:14:37;;;;;;;0.60;0.30;;;;;;;;;;4164012;28;20518;-40
2022/05/03 07:16:38;;;;;;;0.80;0.28;;;;;;;;;;4169228;28;20110;-41
2022/05/03 07:23:19;;;;;;;;;;;;;;;;;;4166433;28;20048;-42
2022/05/03 07:25:20;;;;;;;2.40;0.30;;;;;;;;;;4165946;28;19928;-41
2022/05/03 07:27:21;;;;;;;2.42;0.55;;;;;;;;;;4173163;28;20060;-40
2022/05/03 07:29:23;;;;;;;0.43;0.20;;;;;;;;;;4169866;28;20406;-41
2022/05/03 07:31:24;;;;;;;1.00;0.17;;;;;;;;;;4173519;28;20049;-40
2022/05/03 07:33:25;;;;;;;1.42;0.65;;;;;;;;;;4174303;28;20515;-39
2022/05/03 07:35:26;;;;;;;2.45;0.22;;;;;;;;;;4170958;28;20052;-41
2022/05/03 07:37:27;;;;;;;1.10;0.20;;;;;;;;;;4177711;28;20119;-41
2022/05/03 07:39:30;;;;;;;0.73;0.20;;;;;;;;;;4179226;28;20106;-39
2022/05/03 07:41:31;;;;;;;1.58;0.20;;;;;;;;;;4168664;28;20118;-50
2022/05/03 07:43:33;;;;;;;3.90;0.43;;;;;;;;;;4169586;28;20049;-38
2022/05/03 07:45:34;;;;;;;2.25;0.10;;;;;;;;;;4169869;28;20056;-42
2022/05/03 07:47:36;;;;;;;0.55;0.20;;;;;;;;;;4162082;28;20608;-41
2022/05/03 07:49:37;;;;;;;0.60;0.20;;;;;;;;;;4169983;28;20056;-42
2022/05/03 07:51:41;;;;;;;0.55;0.20;;;;;;;;;;4162618;28;20126;-41
2022/05/03 07:53:43;;;;;;;3.20;0.32;;;;;;;;;;4162986;28;20056;-41
2022/05/03 07:55:44;;;;;;;0.68;0.20;;;;;;;;;;4162495;28;20424;-41
2022/05/03 07:57:46;;;;;;;2.70;0.30;;;;;;;;;;4162640;28;20064;-40
2022/05/03 07:59:47;;;;;;;1.38;0.30;;;;;;;;;;4169266;28;21056;-42
2022/05/03 08:01:49;;;;;;;0.60;0.30;;;;;;;;;;4161620;28;20514;-42
2022/05/03 08:03:50;;;;;;;0.63;0.30;;;;;;;;;;4167632;28;20149;-42
2022/05/03 08:05:52;;;;;;;0.30;0.20;;;;;;;;;;4189475;28;21263;-40
2022/05/03 08:07:53;;;;;;;0.50;0.20;;;;;;;;;;4169539;28;20098;-40
2022/05/03 08:09:54;;;;;;;0.60;0.20;;;;;;;;;;4173197;28;20053;-40
2022/05/03 08:11:56;;;;;;;0.30;0.15;;;;;;;;;;4169087;28;20433;-42
2022/05/03 08:13:58;;;;;;;2.85;0.30;;;;;;;;;;4168390;28;20106;-42
2022/05/03 08:15:59;;;;;;;0.20;0.10;;;;;;;;;;4173424;28;20273;-42
2022/05/03 08:18:00;;;;;;;0.20;0.10;;;;;;;;;;4168468;28;20049;-41
2022/05/03 08:20:02;;;;;;;0.85;0.20;;;;;;;;;;4169272;28;20527;-40
2022/05/03 08:22:04;;;;;;;0.50;0.20;;;;;;;;;;4173742;28;20057;-39
2022/05/03 08:24:05;;;;;;;1.45;0.10;;;;;;;;;;4173814;28;20102;-42
2022/05/03 08:26:07;;;;;;;0.40;0.15;;;;;;;;;;4172140;28;20060;-42
2022/05/03 08:28:08;;;;;;;0.85;0.20;;;;;;;;;;4166307;28;20113;-41
2022/05/03 08:30:10;;;;;;;0.22;0.10;;;;;;;;;;4164887;28;20555;-42
2022/05/03 08:32:11;;;;;;;0.40;0.10;;;;;;;;;;4161163;28;20064;-41
2022/05/03 08:34:13;;;;;;;0.95;0.20;;;;;;;;;;4163386;28;20202;-42
2022/05/03 08:36:14;;;;;;;0.22;0.20;;;;;;;;;;4168529;28;20135;-42
2022/05/03 08:42:55;;;;;;;0.30;0.17;;;;;;;;;;4168031;28;20053;-41
2022/05/03 08:44:57;;;;;;;1.45;0.10;;;;;;;;;;4169673;28;20241;-42
2022/05/03 08:46:59;;;;;;;0.70;0.20;;;;;;;;;;4168662;28;20056;-39
2022/05/03 08:49:04;;;;;;;1.75;0.22;;;;;;;;;;4174225;28;20057;-41
2022/05/03 08:51:07;;;;;;;0.50;0.28;;;;;;;;;;4168924;28;20103;-40
2022/05/03 08:53:09;;;;;;;0.30;0.20;;;;;;;;;;4172224;28;20060;-41
2022/05/03 08:55:11;;;;;;;0.55;0.10;;;;;;;;;;4169876;28;20057;-41
2022/05/03 08:57:12;;;;;;;0.32;0.10;;;;;;;;;;4171623;28;20135;-42
2022/05/03 08:59:14;;;;;;;1.85;0.25;;;;;;;;;;4172294;28;20060;-40
2022/05/03 09:01:15;;;;;;;0.77;0.30;;;;;;;;;;4164944;28;20060;-39
2022/05/03 09:03:17;;;;;;;0.32;0.10;;;;;;;;;;4175987;28;20072;-41
2022/05/03 09:05:19;;;;;;;0.40;0.17;;;;;;;;;;4176094;28;20061;-41
2022/05/03 09:07:24;;;;;;;0.30;0.30;;;;;;;;;;4172560;28;20050;-42
2022/05/03 09:09:26;;;;;;;0.55;0.17;;;;;;;;;;4177100;28;20334;-42
2022/05/03 09:11:42;;;;;;;1.27;0.20;;;;;;;;;;4175005;28;20060;-41
2022/05/03 09:13:44;;;;;;;0.47;0.13;;;;;;;;;;4174776;28;20571;-42
2022/05/03 09:15:47;;;;;;;0.70;0.20;;;;;;;;;;4175739;28;20053;-42
2022/05/03 09:17:49;;;;;;;0.55;0.10;;;;;;;;;;4174152;28;20107;-42
2022/05/03 09:19:50;;;;;;;1.45;0.47;;;;;;;;;;4171075;28;20061;-41
2022/05/03 09:24:13;;;;;;;0.10;0.10;;;;;;;;;;4175541;28;20449;-39
2022/05/03 09:26:22;;;;;;;0.20;0.10;;;;;;;;;;4164270;28;20060;-39
2022/05/03 09:28:24;;;;;;;1.05;0.10;;;;;;;;;;4168943;28;20560;-39
2022/05/03 09:30:25;;;;;;;0.95;0.10;;;;;;;;;;4168731;28;20061;-41
2022/05/03 09:32:42;;;;;;;0.50;0.20;;;;;;;;;;4170522;28;20090;-41
2022/05/03 09:34:43;;;;;;;0.45;0.15;;;;;;;;;;4175658;28;20148;-39
2022/05/03 09:36:49;;;;;;;0.57;0.20;;;;;;;;;;4170265;28;20056;-41
2022/05/03 09:38:52;;;;;;;0.47;0.17;;;;;;;;;;4175519;28;20416;-43
2022/05/03 09:40:54;;;;;;;2.10;0.20;;;;;;;;;;4184354;28;20052;-42
2022/05/03 09:42:56;;;;;;;2.92;0.17;;;;;;;;;;4172656;28;20542;-42
2022/05/03 09:45:02;;;;;;;1.00;0.15;;;;;;;;;;4171308;28;20056;-42
2022/05/03 09:47:11;;;;;;;0.20;0.20;;;;;;;;;;4166907;28;20715;-42
2022/05/03 09:49:13;;;;;;;0.82;0.43;;;;;;;;;;4178218;28;20045;-42
2022/05/03 09:51:15;;;;;;;0.57;0.47;;;;;;;;;;4171581;28;20531;-41
2022/05/03 09:53:21;;;;;;;2.13;0.20;;;;;;;;;;4170808;28;20470;-40
2022/05/03 09:55:30;;;;;;;0.47;0.20;;;;;;;;;;4170256;28;20064;-42
2022/05/03 09:57:33;;;;;;;0.85;0.20;;;;;;;;;;4172817;28;20114;-42
2022/05/03 09:59:34;;;;;;;0.40;0.22;;;;;;;;;;4165585;28;20052;-42
2022/05/03 10:01:35;;;;;;;0.25;0.10;;;;;;;;;;4172040;28;20121;-36
2022/05/03 10:03:37;;;;;;;0.55;0.20;;;;;;;;;;4174418;28;20049;-41
2022/05/03 10:05:41;;;;;;;0.68;0.20;;;;;;;;;;4166435;28;20082;-41
2022/05/03 10:07:45;;;;;;;1.17;0.30;;;;;;;;;;4172643;28;20714;-40
2022/05/03 10:09:46;;;;;;;0.47;0.20;;;;;;;;;;4180723;28;20437;-42
2022/05/03 10:11:50;;;;;;;2.25;0.22;;;;;;;;;;4175622;28;20424;-42
2022/05/03 10:13:52;;;;;;;0.63;0.20;;;;;;;;;;4181912;28;20044;-41
2022/05/03 10:21:03;;;;;;;0.47;0.10;;;;;;;;;;4178351;28;20060;-42
2022/05/03 10:23:32;;;;;;;0.10;0.10;;;;;;;;;;4181233;28;20049;-40
2022/05/03 10:25:42;;;;;;;0.85;0.30;;;;;;;;;;4183524;28;20049;-43
2022/05/03 10:27:54;;;;;;;1.40;0.30;;;;;;;;;;4179341;28;20049;-42
2022/05/03 10:30:20;;;;;;;0.55;0.25;;;;;;;;;;4169145;28;20722;-43
2022/05/03 10:32:22;;;;;;;0.20;0.10;;;;;;;;;;4177834;28;20057;-39
2022/05/03 10:34:42;;;;;;;0.17;0.17;;;;;;;;;;4165085;28;20184;-41
2022/05/03 10:36:43;;;;;;;0.50;0.30;;;;;;;;;;4175750;28;20059;-40
2022/05/03 10:38:46;;;;;;;2.28;0.40;;;;;;;;;;4178391;28;20057;-41
2022/05/03 10:40:48;;;;;;;0.82;0.28;;;;;;;;;;4176280;28;20056;-43
2022/05/03 10:43:12;;;;;;;0.22;0.20;;;;;;;;;;4176951;28;20182;-40
2022/05/03 10:45:14;;;;;;;0.68;0.30;;;;;;;;;;4170363;28;20045;-41
2022/05/03 10:47:20;;;;;;;0.68;0.30;;;;;;;;;;4163555;28;20057;-42
2022/05/03 10:49:21;;;;;;;0.57;0.22;;;;;;;;;;4162045;28;20056;-42
2022/05/03 10:51:23;;;;;;;0.85;0.20;;;;;;;;;;4164929;28;20095;-38
2022/05/03 10:53:34;;;;;;;0.30;0.30;;;;;;;;;;4166141;28;20052;-42
2022/05/03 10:55:40;;;;;;;0.30;0.20;;;;;;;;;;4154939;28;20079;-42
2022/05/03 10:58:19;;;;;;;0.75;0.30;;;;;;;;;;4168659;28;20057;-42
2022/05/03 11:00:58;;;;;;;0.80;0.30;;;;;;;;;;4170814;28;20063;-42
2022/05/03 11:03:25;;;;;;;0.80;0.25;;;;;;;;;;4171602;28;20097;-43
2022/05/03 11:05:26;;;;;;;0.82;0.20;;;;;;;;;;4166405;28;20052;-42
2022/05/03 11:07:29;;;;;;;0.65;0.20;;;;;;;;;;4169438;28;20068;-39
2022/05/03 11:09:34;;;;;;;2.22;0.40;;;;;;;;;;4170278;28;20087;-43
2022/05/03 11:11:39;;;;;;;0.40;0.28;;;;;;;;;;4169908;28;20493;-40
2022/05/03 11:13:41;;;;;;;2.72;0.10;;;;;;;;;;4174749;28;20456;-40
2022/05/03 11:16:20;;;;;;;0.65;0.20;;;;;;;;;;4174499;28;20060;-39
2022/05/03 11:18:22;;;;;;;1.42;0.30;;;;;;;;;;4172423;28;20102;-38
2022/05/03 11:20:24;;;;;;;2.25;0.20;;;;;;;;;;4169430;28;20511;-36
2022/05/03 11:22:35;;;;;;;1.75;0.28;;;;;;;;;;4167774;28;20053;-36
2022/05/03 11:24:41;;;;;;;0.95;0.20;;;;;;;;;;4169388;28;20409;-39
2022/05/03 11:26:42;;;;;;;1.38;0.20;;;;;;;;;;4173333;28;20098;-39
2022/05/03 11:28:46;;;;;;;0.17;0.10;;;;;;;;;;4166222;28;20507;-40
2022/05/03 11:30:48;;;;;;;0.75;0.28;;;;;;;;;;4170097;28;20056;-41
2022/05/03 11:32:56;;;;;;;0.20;0.10;;;;;;;;;;4170969;28;20413;-41
2022/05/03 11:35:11;;;;;;;0.60;0.30;;;;;;;;;;4169913;28;20504;-42
2022/05/03 11:37:12;;;;;;;0.28;0.28;;;;;;;;;;4167911;28;20053;-40
2022/05/03 11:39:14;;;;;;;1.80;0.20;;;;;;;;;;4167086;28;20091;-40
2022/05/03 11:41:19;;;;;;;2.55;0.25;;;;;;;;;;4174429;28;20591;-40
2022/05/03 11:43:20;;;;;;;0.40;0.20;;;;;;;;;;4175955;28;20056;-44
2022/05/03 11:45:21;;;;;;;0.25;0.20;;;;;;;;;;4173377;28;20114;-44
2022/05/03 11:47:22;;;;;;;2.63;0.30;;;;;;;;;;4172480;28;20143;-38
2022/05/03 11:49:23;;;;;;;0.98;0.40;;;;;;;;;;4173518;28;20487;-34
2022/05/03 11:56:07;;;;;;;1.75;0.20;;;;;;;;;;4169922;28;20965;-34
2022/05/03 11:58:09;;;;;;;1.17;0.10;;;;;;;;;;4162536;28;20064;-35
2022/05/03 12:00:13;;;;;;;0.25;0.20;;;;;;;;;;4164283;28;20141;-32
2022/05/03 12:02:38;;;;;;;0.20;0.20;;;;;;;;;;4169113;28;20116;-32
2022/05/03 12:04:48;;;;;;;2.30;0.30;;;;;;;;;;4161416;28;20241;-32
2022/05/03 12:06:50;;;;;;;1.90;0.13;;;;;;;;;;4161755;28;20120;-32
2022/05/03 12:08:52;;;;;;;0.30;0.10;;;;;;;;;;4164453;28;20056;-34
2022/05/03 12:10:56;;;;;;;0.98;0.20;;;;;;;;;;4166515;28;20049;-32
2022/05/03 12:13:13;;;;;;;0.63;0.30;;;;;;;;;;4168083;28;20435;-33
2022/05/03 12:15:22;;;;;;;1.55;0.30;;;;;;;;;;4168434;28;20056;-32
2022/05/03 12:17:24;;;;;;;0.30;0.10;;;;;;;;;;4170069;28;20432;-32
2022/05/03 12:19:25;;;;;;;0.52;0.10;;;;;;;;;;4175306;28;20053;-33
2022/05/03 12:21:29;;;;;;;0.80;0.20;;;;;;;;;;4166579;28;20182;-33
2022/05/03 12:23:33;;;;;;;0.68;0.10;;;;;;;;;;4165493;28;20052;-33
2022/05/03 12:25:35;;;;;;;0.60;0.20;;;;;;;;;;4173018;28;20288;-33
2022/05/03 12:27:36;;;;;;;1.15;0.20;;;;;;;;;;4168134;28;20468;-32
2022/05/03 12:29:47;;;;;;;0.38;0.10;;;;;;;;;;4170444;28;20056;-32
2022/05/03 12:31:48;;;;;;;0.35;0.20;;;;;;;;;;4170527;28;20146;-32
2022/05/03 12:33:55;;;;;;;0.20;0.10;;;;;;;;;;4165914;28;20060;-33
2022/05/03 12:35:56;;;;;;;0.40;0.20;;;;;;;;;;4172621;28;20110;-33
2022/05/03 12:37:58;;;;;;;0.63;0.20;;;;;;;;;;4167255;28;20060;-32
2022/05/03 12:40:00;;;;;;;0.17;0.10;;;;;;;;;;4173558;28;20052;-33
2022/05/03 12:42:08;;;;;;;0.20;0.10;;;;;;;;;;4172294;28;20373;-32
2022/05/03 12:44:14;;;;;;;2.08;0.20;;;;;;;;;;4175379;28;20053;-33
2022/05/03 12:46:15;;;;;;;3.40;0.15;;;;;;;;;;4171051;28;20068;-33
2022/05/03 12:48:17;;;;;;;0.40;0.15;;;;;;;;;;4174365;28;20098;-33
2022/05/03 12:50:20;;;;;;;0.22;0.10;;;;;;;;;;4167924;28;20468;-33
2022/05/03 12:52:21;;;;;;;0.70;0.25;;;;;;;;;;4170387;28;20057;-33
2022/05/03 12:54:22;;;;;;;1.25;0.30;;;;;;;;;;4173010;28;20218;-33
2022/05/03 12:58:43;;;;;;;2.25;0.32;;;;;;;;;;4179381;28;20052;-33
2022/05/03 13:00:44;;;;;;;0.32;0.20;;;;;;;;;;4173003;28;20526;-33